Time;durP1;ratioP1;P1;durP2;ratioP2;P2;SDS_P1;SDS_P2;PMS_P1;PMS_P2;Temp;Humidity;BMP_temperature;BMP_pressure;BME280_temperature;BME280_humidity;BME280_pressure;Samples;Min_cycle;Max_cycle;Signal;HPM_P1;HPM_P2
2020/12/10 00:04:49;;;;;;;63.90;31.17;;;;;;;2.82;68.34;99408.50;10444514;28;20390;-64
2020/12/10 00:09:51;;;;;;;66.90;31.58;;;;;;;2.77;68.69;99398.16;10462582;28;20437;-65
2020/12/10 00:14:55;;;;;;;65.00;31.27;;;;;;;3.00;67.59;99396.16;10464998;28;20048;-64
2020/12/10 00:19:57;;;;;;;67.95;32.40;;;;;;;2.71;68.44;99393.91;10464300;28;20513;-67
2020/12/10 00:24:58;;;;;;;73.72;31.38;;;;;;;2.70;68.71;99392.19;10462827;28;20036;-68
2020/12/10 00:29:59;;;;;;;62.28;30.38;;;;;;;2.61;68.98;99386.22;10461998;28;20049;-68
2020/12/10 00:35:02;;;;;;;72.47;32.80;;;;;;;2.44;69.31;99379.47;10460989;28;20044;-67
2020/12/10 00:40:07;;;;;;;79.45;33.45;;;;;;;2.66;68.93;99379.28;10460852;28;20040;-67
2020/12/10 00:45:09;;;;;;;67.20;30.67;;;;;;;2.73;68.79;99375.72;10461154;28;20052;-67
2020/12/10 00:50:10;;;;;;;65.57;32.25;;;;;;;2.83;68.42;99377.31;10460348;28;20041;-68
2020/12/10 00:55:13;;;;;;;68.25;32.05;;;;;;;2.75;68.43;99381.75;10443773;28;20072;-67
2020/12/10 01:00:17;;;;;;;77.57;32.92;;;;;;;2.57;69.34;99375.03;10460897;28;20037;-67
2020/12/10 01:05:18;;;;;;;63.38;31.60;;;;;;;2.50;69.11;99379.41;10460463;28;20041;-67
2020/12/10 01:10:19;;;;;;;74.85;31.88;;;;;;;2.63;69.15;99364.56;10460422;28;20049;-67
2020/12/10 01:15:21;;;;;;;67.18;30.67;;;;;;;2.66;69.15;99355.91;10460134;28;20530;-68
2020/12/10 01:20:22;;;;;;;68.72;32.63;;;;;;;2.59;68.75;99355.09;10461521;28;20045;-68
2020/12/10 01:25:24;;;;;;;66.20;31.05;;;;;;;2.67;68.99;99355.88;10459288;28;20068;-67
2020/12/10 01:30:25;;;;;;;63.15;30.67;;;;;;;2.66;68.85;99351.59;10459114;28;20045;-66
2020/12/10 01:35:26;;;;;;;69.47;30.85;;;;;;;2.45;69.29;99349.19;10459841;28;20041;-68
2020/12/10 01:40:27;;;;;;;67.80;30.95;;;;;;;2.58;69.00;99344.75;10458355;28;20513;-67
2020/12/10 01:45:28;;;;;;;61.65;29.70;;;;;;;2.52;69.15;99348.25;10458625;28;20047;-67
2020/12/10 01:50:29;;;;;;;76.13;32.15;;;;;;;2.66;68.63;99343.78;10458492;28;20053;-67
2020/12/10 01:55:31;;;;;;;66.53;30.95;;;;;;;2.51;69.00;99338.75;10457726;28;20041;-67
2020/12/10 02:00:32;;;;;;;63.05;30.88;;;;;;;2.63;68.43;99336.03;10457652;28;20135;-68
2020/12/10 02:05:40;;;;;;;62.20;30.58;;;;;;;2.52;68.84;99330.97;10457502;28;20088;-67
2020/12/10 02:10:41;;;;;;;72.38;31.38;;;;;;;2.44;68.94;99324.16;10458250;28;20373;-67
2020/12/10 02:15:49;;;;;;;69.90;30.95;;;;;;;2.50;69.09;99319.75;10457935;28;20115;-67
2020/12/10 02:20:50;;;;;;;71.00;30.95;;;;;;;2.44;69.10;99314.63;10457202;28;20052;-67
2020/12/10 02:25:52;;;;;;;72.32;31.50;;;;;;;2.65;68.59;99310.06;10457359;28;20045;-67
2020/12/10 02:30:53;;;;;;;70.15;31.05;;;;;;;2.58;68.36;99296.31;10456883;28;20059;-67
2020/12/10 02:35:54;;;;;;;71.13;31.63;;;;;;;2.41;69.16;99293.91;10457269;28;20052;-67
2020/12/10 02:40:55;;;;;;;74.72;33.40;;;;;;;2.38;68.82;99293.06;10437979;28;20061;-67
2020/12/10 02:45:56;;;;;;;71.85;32.65;;;;;;;2.40;69.13;99291.34;10456151;28;20041;-67
2020/12/10 02:51:01;;;;;;;71.50;31.15;;;;;;;2.34;69.03;99287.03;10455897;28;20115;-66
2020/12/10 02:56:10;;;;;;;73.63;32.13;;;;;;;2.47;68.96;99287.78;10438309;28;20041;-68
2020/12/10 03:01:11;;;;;;;67.43;30.08;;;;;;;2.36;69.11;99280.13;10438284;28;20053;-68
2020/12/10 03:06:13;;;;;;;66.25;31.73;;;;;;;2.41;68.68;99280.94;10455858;28;20406;-67
2020/12/10 03:11:14;;;;;;;69.82;32.45;;;;;;;2.39;68.88;99274.03;10455640;28;20041;-66
2020/12/10 03:16:15;;;;;;;71.57;31.77;;;;;;;2.34;69.56;99266.28;10455943;28;20079;-67
2020/12/10 03:21:16;;;;;;;69.82;31.60;;;;;;;2.75;68.09;99260.66;10455378;28;20049;-67
2020/12/10 03:26:17;;;;;;;71.53;31.42;;;;;;;2.56;68.47;99266.06;10455070;28;20518;-67
2020/12/10 03:31:18;;;;;;;73.35;32.13;;;;;;;2.60;68.21;99258.22;10454787;28;20044;-66
2020/12/10 03:36:19;;;;;;;74.55;32.60;;;;;;;2.61;68.03;99256.47;10455599;28;20132;-67
2020/12/10 03:41:20;;;;;;;72.68;31.23;;;;;;;2.53;68.76;99259.19;10454818;28;20048;-66
2020/12/10 03:46:21;;;;;;;72.10;32.35;;;;;;;2.65;68.31;99252.97;10454374;28;20426;-66
2020/12/10 03:51:23;;;;;;;75.60;34.53;;;;;;;2.47;68.57;99248.88;10454133;28;20096;-66
2020/12/10 03:56:24;;;;;;;78.05;32.78;;;;;;;2.56;68.34;99253.94;10436672;28;20048;-66
2020/12/10 04:01:26;;;;;;;85.75;34.40;;;;;;;2.35;69.42;99255.06;10454288;28;20068;-66
2020/12/10 04:06:28;;;;;;;75.55;31.48;;;;;;;2.60;68.54;99249.59;10454144;28;20448;-66
2020/12/10 04:11:29;;;;;;;81.07;34.15;;;;;;;2.28;69.45;99261.19;10454958;28;20398;-67
2020/12/10 04:16:32;;;;;;;73.63;31.80;;;;;;;2.46;69.47;99258.38;10453533;28;20107;-66
2020/12/10 04:21:34;;;;;;;81.70;35.50;;;;;;;2.46;68.92;99252.34;10461762;28;20453;-66
2020/12/10 04:26:35;;;;;;;82.35;34.88;;;;;;;2.45;69.23;99251.50;10461633;28;20041;-66
2020/12/10 04:31:36;;;;;;;87.10;35.42;;;;;;;2.27;69.39;99246.50;10461371;28;20372;-66
2020/12/10 04:36:38;;;;;;;85.28;33.83;;;;;;;2.45;69.12;99237.66;10460983;28;20037;-66
2020/12/10 04:41:40;;;;;;;84.88;35.85;;;;;;;2.20;69.49;99243.09;10461045;28;20044;-67
2020/12/10 04:46:44;;;;;;;90.10;37.58;;;;;;;2.25;69.59;99236.13;10460038;28;20029;-67
2020/12/10 04:51:46;;;;;;;84.55;36.58;;;;;;;2.36;69.17;99235.19;10459715;28;20044;-66
2020/12/10 04:56:47;;;;;;;92.82;37.58;;;;;;;2.41;69.12;99229.06;10442371;28;20045;-67
2020/12/10 05:01:48;;;;;;;88.65;36.90;;;;;;;2.41;69.04;99231.66;10460082;28;20055;-66
2020/12/10 05:06:50;;;;;;;86.63;35.90;;;;;;;2.47;69.00;99228.97;10460337;28;20053;-67
2020/12/10 05:11:54;;;;;;;81.15;35.10;;;;;;;2.22;69.69;99235.34;10442258;28;20056;-67
2020/12/10 05:17:14;;;;;;;85.10;35.88;;;;;;;2.16;70.21;99235.38;10445728;28;20452;-66
2020/12/10 05:22:15;;;;;;;84.93;35.40;;;;;;;2.34;69.77;99242.97;10459777;28;20123;-67
2020/12/10 05:27:22;;;;;;;81.88;34.67;;;;;;;2.20;69.65;99229.28;10459900;28;20052;-66
2020/12/10 05:32:34;;;;;;;81.68;36.30;;;;;;;2.22;69.41;99225.81;10458670;28;20045;-67
2020/12/10 05:37:35;;;;;;;88.03;35.97;;;;;;;2.19;69.46;99227.56;10458680;28;20055;-66
2020/12/10 05:42:38;;;;;;;87.40;35.80;;;;;;;2.12;69.59;99231.09;10458888;28;20044;-67
2020/12/10 05:48:12;;;;;;;85.25;36.22;;;;;;;1.97;69.61;99229.53;10459023;28;20059;-67
2020/12/10 05:53:13;;;;;;;83.85;35.10;;;;;;;1.63;70.73;99226.38;10332323;28;20050;-67
2020/12/10 05:58:18;;;;;;;82.97;35.30;;;;;;;1.83;70.28;99229.66;10330905;28;20050;-67
2020/12/10 06:03:20;;;;;;;86.63;36.53;;;;;;;1.89;70.10;99216.63;10334930;28;20062;-67
2020/12/10 06:08:21;;;;;;;83.25;36.92;;;;;;;1.88;70.01;99227.03;10330355;28;20062;-67
2020/12/10 06:13:23;;;;;;;86.05;36.42;;;;;;;1.63;70.56;99234.16;10330028;28;20125;-65
2020/12/10 06:18:24;;;;;;;85.25;36.60;;;;;;;1.51;70.68;99230.81;10330368;28;20054;-66
2020/12/10 06:23:28;;;;;;;88.63;37.60;;;;;;;1.70;70.31;99246.19;10529823;22;20055;-68
2020/12/10 06:28:29;;;;;;;90.32;37.42;;;;;;;1.83;70.04;99245.22;10554332;28;20059;-68
2020/12/10 06:33:38;;;;;;;86.07;36.13;;;;;;;1.82;69.99;99251.28;10555848;28;20032;-66
2020/12/10 06:38:43;;;;;;;89.18;36.42;;;;;;;1.91;69.81;99264.16;10555198;28;20044;-67
2020/12/10 06:43:44;;;;;;;90.20;34.85;;;;;;;1.72;69.80;99257.41;10553347;28;20074;-65
2020/12/10 06:48:48;;;;;;;92.20;35.60;;;;;;;1.72;70.37;99267.75;10543699;28;20108;-65
2020/12/10 06:53:59;;;;;;;76.22;34.42;;;;;;;1.73;69.38;99269.50;10543996;28;20064;-66
2020/12/10 06:59:01;;;;;;;82.03;34.58;;;;;;;1.79;69.40;99264.25;10525615;28;20424;-66
2020/12/10 07:04:19;;;;;;;79.13;34.45;;;;;;;1.69;69.72;99270.41;10542918;28;20036;-66
2020/12/10 07:09:21;;;;;;;78.93;34.25;;;;;;;1.68;69.99;99271.25;10509384;28;20515;-66
2020/12/10 07:14:23;;;;;;;74.00;33.72;;;;;;;1.57;70.05;99270.50;10545538;28;20048;-66
2020/12/10 07:19:25;;;;;;;79.10;35.17;;;;;;;1.66;69.66;99267.81;10542696;28;20044;-66
2020/12/10 07:24:26;;;;;;;81.35;34.72;;;;;;;1.59;69.89;99282.53;10525366;28;20044;-66
2020/12/10 07:29:27;;;;;;;76.65;31.63;;;;;;;1.68;69.48;99266.06;10543342;28;20067;-66
2020/12/10 07:34:29;;;;;;;76.18;34.40;;;;;;;1.58;69.61;99267.00;10543433;28;20036;-66
2020/12/10 07:39:32;;;;;;;96.82;36.13;;;;;;;1.55;69.47;99267.03;10526284;28;20052;-66
2020/12/10 07:44:35;;;;;;;87.60;34.45;;;;;;;1.52;69.32;99266.19;10544945;28;20059;-67
2020/12/10 07:49:36;;;;;;;87.30;34.85;;;;;;;1.70;69.22;99261.75;10529093;28;20079;-66
2020/12/10 07:54:52;;;;;;;75.57;32.85;;;;;;;1.69;69.03;99263.47;10556112;28;20044;-67
2020/12/10 08:00:06;;;;;;;71.60;32.53;;;;;;;1.82;68.56;99268.56;10559271;28;20108;-67
2020/12/10 08:05:17;;;;;;;68.15;30.77;;;;;;;1.81;68.55;99267.69;10543599;28;20040;-66
2020/12/10 08:10:27;;;;;;;85.15;33.45;;;;;;;1.68;68.80;99266.06;10550472;28;20046;-66
2020/12/10 08:15:28;;;;;;;80.50;34.00;;;;;;;1.80;69.01;99255.59;10552385;28;20044;-66
2020/12/10 08:20:36;;;;;;;74.32;31.75;;;;;;;1.74;69.08;99253.06;10550989;28;20048;-67
2020/12/10 08:25:43;;;;;;;83.40;36.50;;;;;;;1.63;69.42;99250.56;10552048;28;20036;-66
2020/12/10 08:30:53;;;;;;;81.28;35.78;;;;;;;1.61;68.92;99244.53;10532012;28;20143;-66
2020/12/10 08:35:56;;;;;;;83.10;35.78;;;;;;;1.49;69.17;99242.91;10556080;28;20146;-70
2020/12/10 08:40:59;;;;;;;84.32;34.25;;;;;;;1.75;68.42;99252.19;10554046;28;20051;-71
2020/12/10 08:46:14;;;;;;;86.97;36.38;;;;;;;1.46;69.57;99252.41;10552374;28;20045;-67
2020/12/10 08:51:16;;;;;;;85.63;35.22;;;;;;;1.51;69.22;99261.91;10552785;28;20132;-66
2020/12/10 08:56:26;;;;;;;87.82;36.30;;;;;;;1.56;69.25;99268.78;10551415;28;20068;-66
2020/12/10 09:01:28;;;;;;;87.80;36.20;;;;;;;1.56;68.81;99261.00;10550540;28;20055;-65
2020/12/10 09:06:35;;;;;;;84.65;35.58;;;;;;;1.58;68.76;99254.06;10548233;28;20094;-66
2020/12/10 09:11:37;;;;;;;77.93;35.40;;;;;;;1.55;68.84;99261.84;10549167;28;20044;-66
2020/12/10 09:16:39;;;;;;;81.95;35.30;;;;;;;1.56;68.70;99259.28;10532623;28;20294;-65
2020/12/10 09:21:40;;;;;;;81.55;34.75;;;;;;;1.56;69.03;99255.81;10548741;28;20044;-64
2020/12/10 09:26:43;;;;;;;78.45;34.63;;;;;;;1.61;68.96;99254.91;10551851;28;20075;-66
2020/12/10 09:31:45;;;;;;;82.70;35.47;;;;;;;1.63;68.75;99247.97;10553160;28;20048;-68
2020/12/10 09:36:46;;;;;;;91.32;36.05;;;;;;;1.44;69.06;99238.63;10551115;28;20061;-66
2020/12/10 09:41:48;;;;;;;86.13;35.17;;;;;;;1.82;68.50;99235.72;10550798;28;20086;-65
2020/12/10 09:46:50;;;;;;;80.15;34.63;;;;;;;1.95;68.49;99223.53;10536206;28;20389;-67
2020/12/10 09:51:59;;;;;;;78.90;33.80;;;;;;;2.03;67.67;99217.34;10552081;28;20066;-67
2020/12/10 10:02:04;;;;;;;86.25;35.70;;;;;;;1.99;67.59;99215.69;10553777;28;20438;-66
2020/12/10 10:07:07;;;;;;;85.35;35.50;;;;;;;1.71;68.35;99201.28;10537308;28;20048;-67
2020/12/10 10:12:11;;;;;;;88.90;37.40;;;;;;;2.02;67.49;99205.28;10556784;28;20058;-67
2020/12/10 10:17:15;;;;;;;92.25;36.78;;;;;;;2.10;67.01;99200.03;10537049;28;20054;-65
2020/12/10 10:22:18;;;;;;;88.55;36.28;;;;;;;2.28;67.01;99196.34;10549258;28;20052;-65
2020/12/10 10:27:20;;;;;;;83.32;35.30;;;;;;;2.03;67.52;99191.44;10523299;28;20147;-66
2020/12/10 10:32:24;;;;;;;85.45;37.45;;;;;;;2.03;67.37;99195.75;10559664;28;20442;-66
2020/12/10 10:37:28;;;;;;;86.88;36.53;;;;;;;2.39;66.34;99199.69;10554083;28;20068;-67
2020/12/10 10:42:29;;;;;;;90.60;36.65;;;;;;;2.43;66.36;99184.94;10527154;28;20398;-65
2020/12/10 10:47:31;;;;;;;84.90;35.67;;;;;;;2.15;66.92;99181.81;10545414;28;20040;-66
2020/12/10 10:52:32;;;;;;;79.40;35.10;;;;;;;2.33;66.39;99175.56;10544913;28;20047;-67
2020/12/10 10:57:33;;;;;;;83.15;35.75;;;;;;;2.42;65.98;99176.28;10544565;28;20040;-65
2020/12/10 11:02:34;;;;;;;81.40;34.40;;;;;;;2.39;66.42;99178.06;10542545;28;20051;-66
2020/12/10 11:07:36;;;;;;;85.95;36.75;;;;;;;2.27;66.99;99168.72;10541013;28;20142;-65
2020/12/10 11:12:37;;;;;;;80.40;36.03;;;;;;;2.11;66.95;99169.75;10541800;28;20044;-64
2020/12/10 11:17:38;;;;;;;93.63;36.85;;;;;;;2.20;66.63;99161.88;10541333;28;20079;-64
2020/12/10 11:22:40;;;;;;;79.18;35.15;;;;;;;2.15;67.20;99161.06;10542477;28;20406;-64
2020/12/10 11:27:41;;;;;;;80.72;36.60;;;;;;;2.27;66.31;99148.81;10525220;28;20147;-65
2020/12/10 11:32:42;;;;;;;86.28;35.72;;;;;;;2.07;67.21;99157.72;10549878;28;20090;-65
2020/12/10 11:37:43;;;;;;;90.47;36.47;;;;;;;2.06;66.85;99150.81;10550144;28;20130;-64
2020/12/10 11:42:46;;;;;;;87.22;36.03;;;;;;;2.09;66.75;99150.78;10548924;28;20134;-65
2020/12/10 11:47:48;;;;;;;96.32;39.13;;;;;;;2.05;67.01;99155.16;10530936;28;20059;-65
2020/12/10 11:52:51;;;;;;;90.78;39.88;;;;;;;1.91;67.68;99155.31;10530752;28;20079;-65
2020/12/10 11:57:54;;;;;;;102.47;39.55;;;;;;;1.99;67.23;99147.41;10532065;28;20075;-64
2020/12/10 12:02:56;;;;;;;97.78;38.83;;;;;;;1.88;67.53;99155.31;10549323;28;20105;-64
2020/12/10 12:07:57;;;;;;;93.55;37.67;;;;;;;1.91;67.75;99149.25;10548387;28;20047;-63
2020/12/10 12:12:58;;;;;;;94.78;37.45;;;;;;;1.98;67.15;99145.72;10548622;28;20044;-65
2020/12/10 12:17:59;;;;;;;94.05;39.67;;;;;;;1.83;67.67;99158.84;10548868;28;20044;-65
2020/12/10 12:23:00;;;;;;;97.65;39.15;;;;;;;1.88;67.45;99151.88;10561777;22;20048;-71
2020/12/10 12:28:02;;;;;;;97.78;36.80;;;;;;;2.01;67.00;99146.53;10555569;28;20044;-71
2020/12/10 12:33:05;;;;;;;101.32;39.53;;;;;;;1.80;68.06;99148.50;10555243;28;20047;-70
2020/12/10 12:38:07;;;;;;;89.53;37.40;;;;;;;2.01;67.41;99143.94;10552084;28;20422;-72
2020/12/10 12:43:08;;;;;;;91.45;34.95;;;;;;;1.99;67.15;99145.72;10535722;28;20055;-71
2020/12/10 12:48:11;;;;;;;95.15;36.60;;;;;;;1.97;67.47;99142.25;10553535;28;20123;-71
2020/12/10 12:53:13;;;;;;;90.25;36.80;;;;;;;1.86;67.49;99138.94;10517834;28;20040;-71
2020/12/10 12:58:16;;;;;;;91.10;36.60;;;;;;;1.93;67.52;99139.72;10519618;28;20040;-70
2020/12/10 13:03:18;;;;;;;93.65;37.15;;;;;;;1.97;67.34;99147.44;10554232;28;20512;-70
2020/12/10 13:08:21;;;;;;;86.55;35.40;;;;;;;1.74;67.56;99152.03;10557056;28;20044;-71
2020/12/10 13:13:23;;;;;;;87.68;35.88;;;;;;;1.90;67.28;99158.75;10554947;28;20071;-70
2020/12/10 13:18:25;;;;;;;84.70;35.33;;;;;;;1.73;67.72;99152.91;10555360;28;20142;-70
2020/12/10 13:23:27;;;;;;;87.15;35.50;;;;;;;1.85;67.45;99155.34;10556740;28;20063;-70
2020/12/10 13:28:31;;;;;;;87.28;35.03;;;;;;;1.81;67.50;99155.41;10557643;28;20458;-71
2020/12/10 13:33:33;;;;;;;83.30;34.50;;;;;;;1.64;68.16;99158.16;10533853;28;20047;-71
2020/12/10 13:38:37;;;;;;;87.22;35.50;;;;;;;1.73;67.63;99160.69;10532120;28;20040;-71
2020/12/10 13:43:48;;;;;;;84.68;36.13;;;;;;;1.49;68.38;99165.22;10531627;28;20052;-72
2020/12/10 13:48:53;;;;;;;88.93;34.17;;;;;;;1.61;68.15;99166.84;10549048;28;20044;-71
2020/12/10 13:54:04;;;;;;;95.78;37.65;;;;;;;1.40;68.72;99170.47;10529594;28;20391;-71
2020/12/10 13:59:17;;;;;;;90.43;37.07;;;;;;;1.56;68.41;99170.34;10529425;28;20154;-71
2020/12/10 14:04:25;;;;;;;88.78;35.95;;;;;;;1.67;67.81;99174.53;10529250;28;20052;-71
2020/12/10 14:09:33;;;;;;;89.32;35.33;;;;;;;1.61;68.13;99172.00;10530629;28;20101;-72
2020/12/10 14:14:38;;;;;;;81.65;34.03;;;;;;;1.74;67.56;99177.94;10545596;28;20032;-70
2020/12/10 14:19:40;;;;;;;88.88;34.63;;;;;;;1.61;67.85;99168.56;10549547;28;20409;-71
2020/12/10 14:24:41;;;;;;;89.28;34.28;;;;;;;1.62;67.80;99181.50;10527813;28;652426;-70
2020/12/10 14:29:45;;;;;;;84.85;35.55;;;;;;;1.51;68.01;99175.56;10551325;28;20051;-71
2020/12/10 14:34:49;;;;;;;98.90;37.90;;;;;;;1.31;68.66;99174.88;10553453;28;20040;-70
2020/12/10 14:39:51;;;;;;;92.40;37.28;;;;;;;1.30;68.73;99178.34;10552899;28;20048;-71
2020/12/10 14:44:53;;;;;;;98.70;38.55;;;;;;;1.33;68.65;99175.69;10549890;28;20052;-70
2020/12/10 14:49:54;;;;;;;89.47;34.00;;;;;;;1.43;68.47;99185.13;10548073;28;20039;-71
2020/12/10 14:54:57;;;;;;;89.53;37.53;;;;;;;1.33;68.94;99184.34;10550106;28;20134;-70
2020/12/10 14:59:58;;;;;;;98.82;37.97;;;;;;;1.19;68.84;99191.34;10553698;28;20048;-70
2020/12/10 15:05:03;;;;;;;93.38;38.47;;;;;;;1.41;68.70;99192.91;10532311;28;20575;-71
2020/12/10 15:10:06;;;;;;;99.88;37.97;;;;;;;1.14;69.19;99193.97;10532361;28;20398;-72
2020/12/10 15:15:07;;;;;;;98.55;37.88;;;;;;;1.05;69.73;99196.63;10547465;28;20089;-72
2020/12/10 15:20:09;;;;;;;95.32;36.45;;;;;;;1.32;68.75;99197.28;10549207;28;20040;-69
2020/12/10 15:25:12;;;;;;;90.22;35.22;;;;;;;1.07;69.22;99194.91;10547593;28;20085;-70
2020/12/10 15:30:14;;;;;;;101.05;37.35;;;;;;;1.31;68.81;99201.63;10546869;28;20432;-71
2020/12/10 15:35:22;;;;;;;101.05;39.92;;;;;;;1.31;68.97;99195.59;10527201;28;20131;-71
2020/12/10 15:40:25;;;;;;;99.07;37.40;;;;;;;1.34;68.63;99196.44;10544479;28;20055;-71
2020/12/10 15:45:26;;;;;;;93.63;35.78;;;;;;;1.26;68.56;99196.47;10544609;28;20040;-71
2020/12/10 15:50:27;;;;;;;87.63;34.75;;;;;;;1.26;68.71;99199.06;10547269;28;20535;-71
2020/12/10 15:55:29;;;;;;;89.70;35.00;;;;;;;1.24;68.55;99199.97;10550038;28;20094;-70
2020/12/10 16:00:31;;;;;;;97.30;36.65;;;;;;;1.36;68.10;99202.44;10546833;28;20058;-70
2020/12/10 16:05:32;;;;;;;100.05;36.25;;;;;;;1.10;69.16;99204.34;10547057;28;20044;-71
2020/12/10 16:10:34;;;;;;;102.95;38.20;;;;;;;1.33;68.62;99202.47;10547181;28;20108;-71
2020/12/10 16:15:35;;;;;;;100.47;38.00;;;;;;;1.11;69.34;99206.09;10534791;28;20436;-71
2020/12/10 16:20:37;;;;;;;96.50;38.47;;;;;;;1.22;69.05;99201.69;10555982;28;20523;-71
2020/12/10 16:25:39;;;;;;;104.72;39.30;;;;;;;1.13;68.85;99200.03;10553333;28;20052;-71
2020/12/10 16:30:40;;;;;;;99.38;37.17;;;;;;;1.13;68.99;99196.59;10553838;28;20054;-71
2020/12/10 16:35:44;;;;;;;100.28;38.53;;;;;;;1.20;68.99;99208.63;10559500;28;20066;-71
2020/12/10 16:40:49;;;;;;;112.90;41.65;;;;;;;0.94;69.85;99196.72;10561461;28;20043;-70
2020/12/10 16:45:50;;;;;;;116.38;43.38;;;;;;;0.94;69.99;99201.88;10558150;28;20047;-70
2020/12/10 16:50:52;;;;;;;123.57;42.60;;;;;;;1.19;69.69;99194.78;10555489;28;20132;-73
2020/12/10 16:55:53;;;;;;;101.43;38.80;;;;;;;1.16;69.29;99191.38;10555686;28;20044;-70
2020/12/10 17:00:55;;;;;;;92.35;34.45;;;;;;;1.19;69.12;99196.53;10552614;28;20059;-71
2020/12/10 17:05:56;;;;;;;92.72;36.53;;;;;;;1.24;68.58;99199.97;10549833;28;20115;-71
2020/12/10 17:11:00;;;;;;;90.93;37.30;;;;;;;1.33;68.27;99193.81;10551479;28;20046;-71
2020/12/10 17:16:02;;;;;;;92.70;36.28;;;;;;;1.24;68.57;99205.16;10548770;28;20067;-71
2020/12/10 17:21:04;;;;;;;97.85;36.15;;;;;;;1.09;68.63;99202.66;10551576;28;20467;-70
2020/12/10 17:26:05;;;;;;;97.80;36.33;;;;;;;1.13;68.47;99204.34;10552165;28;20120;-71
2020/12/10 17:31:07;;;;;;;91.80;36.53;;;;;;;0.97;68.94;99196.69;10552129;28;20135;-71
2020/12/10 17:36:08;;;;;;;93.80;36.88;;;;;;;1.08;68.73;99203.53;10551858;28;20036;-69
2020/12/10 17:41:10;;;;;;;96.18;37.42;;;;;;;1.11;68.68;99206.97;10551745;28;20047;-70
2020/12/10 17:46:12;;;;;;;97.50;37.60;;;;;;;0.91;69.39;99208.81;10551614;28;20074;-70
2020/12/10 17:51:15;;;;;;;92.57;35.38;;;;;;;1.05;68.73;99196.63;10536653;28;20044;-72
2020/12/10 17:56:18;;;;;;;92.43;36.97;;;;;;;1.16;68.38;99199.16;10556650;28;20088;-71
2020/12/10 18:01:19;;;;;;;89.03;35.63;;;;;;;0.90;68.81;99196.75;10536938;28;20040;-71
2020/12/10 18:06:21;;;;;;;96.95;37.08;;;;;;;1.11;68.49;99183.66;10554246;28;20484;-71
2020/12/10 18:11:23;;;;;;;85.40;33.33;;;;;;;1.04;68.47;99199.25;10552423;28;20063;-71
2020/12/10 18:16:25;;;;;;;95.57;36.22;;;;;;;0.83;69.02;99197.63;10550832;28;20126;-72
2020/12/10 18:21:40;;;;;;;87.22;36.88;;;;;;;0.89;69.09;99201.06;10552048;28;20040;-71
2020/12/10 18:26:47;;;;;;;90.68;36.30;;;;;;;1.05;68.43;99195.78;10533423;28;20107;-71
2020/12/10 18:31:53;;;;;;;85.95;36.83;;;;;;;0.90;68.60;99199.34;10497819;22;20095;-70
2020/12/10 18:36:56;;;;;;;95.47;36.53;;;;;;;1.05;68.69;99198.34;10461415;28;20119;-70
2020/12/10 18:41:57;;;;;;;97.43;37.92;;;;;;;1.03;68.64;99193.22;10445077;28;20045;-70
2020/12/10 18:46:59;;;;;;;95.10;36.33;;;;;;;0.83;68.99;99195.91;10444698;28;20091;-70
2020/12/10 18:52:02;;;;;;;91.18;37.45;;;;;;;0.94;68.71;99203.63;10444582;28;20041;-72
2020/12/10 18:57:03;;;;;;;92.55;35.25;;;;;;;1.05;68.23;99204.38;10460657;28;20063;-70
2020/12/10 19:02:12;;;;;;;96.60;38.10;;;;;;;0.90;68.52;99204.50;10459952;28;20414;-70
2020/12/10 19:07:14;;;;;;;92.05;37.05;;;;;;;0.52;69.41;99210.72;10460659;28;20128;-70
2020/12/10 19:12:16;;;;;;;89.65;36.78;;;;;;;0.96;68.42;99210.47;10442420;28;20055;-71
2020/12/10 19:17:17;;;;;;;89.32;34.40;;;;;;;0.79;68.53;99211.44;10458885;28;20519;-70
2020/12/10 19:22:18;;;;;;;87.03;35.05;;;;;;;0.66;68.84;99214.09;10459121;28;20410;-71
2020/12/10 19:27:19;;;;;;;91.60;36.50;;;;;;;0.85;68.61;99214.88;10440976;28;20068;-70
2020/12/10 19:32:21;;;;;;;95.10;35.97;;;;;;;0.69;68.80;99214.09;10458060;28;20049;-71
2020/12/10 19:37:22;;;;;;;91.05;35.55;;;;;;;0.48;69.54;99215.03;10458663;28;20041;-70
2020/12/10 19:42:25;;;;;;;88.40;34.72;;;;;;;0.70;68.53;99214.94;10458397;28;20099;-70
2020/12/10 19:47:27;;;;;;;93.57;36.92;;;;;;;0.55;68.95;99210.72;10439667;28;20045;-70
2020/12/10 19:52:28;;;;;;;86.32;33.35;;;;;;;0.70;68.92;99222.72;10466413;28;20041;-69
2020/12/10 19:57:29;;;;;;;97.35;35.42;;;;;;;0.71;68.43;99225.31;10466049;28;20041;-69
2020/12/10 20:02:31;;;;;;;97.22;36.63;;;;;;;0.71;68.79;99214.97;10466049;28;20053;-70
2020/12/10 20:07:32;;;;;;;99.70;38.08;;;;;;;0.90;68.52;99212.28;10465071;28;20044;-71
2020/12/10 20:12:35;;;;;;;93.75;35.15;;;;;;;0.70;68.80;99205.47;10464769;28;20533;-69
2020/12/10 20:17:36;;;;;;;101.88;38.80;;;;;;;0.85;68.54;99201.09;10464803;28;20041;-70
2020/12/10 20:22:38;;;;;;;101.68;36.72;;;;;;;0.92;68.22;99201.03;10465920;28;20063;-70
2020/12/10 20:27:39;;;;;;;90.75;35.03;;;;;;;0.87;68.16;99207.94;10465397;28;20059;-69
2020/12/10 20:32:40;;;;;;;108.10;39.13;;;;;;;0.65;68.63;99204.63;10463696;28;20060;-71
2020/12/10 20:37:41;;;;;;;88.95;35.20;;;;;;;0.56;68.98;99204.66;10463699;28;20037;-70
2020/12/10 20:42:42;;;;;;;99.45;37.30;;;;;;;0.71;69.02;99207.19;10464630;28;20045;-70
2020/12/10 20:47:43;;;;;;;92.20;35.40;;;;;;;0.87;67.85;99213.13;10463553;28;20045;-70
2020/12/10 20:52:45;;;;;;;85.38;34.30;;;;;;;0.91;67.97;99217.41;10446504;28;20040;-70
2020/12/10 20:57:46;;;;;;;84.35;34.33;;;;;;;0.59;68.72;99208.97;10463338;28;20037;-69
2020/12/10 21:02:47;;;;;;;87.68;34.70;;;;;;;0.62;68.96;99207.25;10463348;28;20584;-70
2020/12/10 21:07:48;;;;;;;85.68;33.28;;;;;;;0.80;68.18;99215.75;10463270;28;20403;-71
2020/12/10 21:12:51;;;;;;;91.15;35.90;;;;;;;0.78;68.22;99214.91;10462243;28;20529;-69
2020/12/10 21:17:52;;;;;;;89.95;35.83;;;;;;;0.87;68.15;99218.31;10462680;28;20415;-69
2020/12/10 21:22:53;;;;;;;89.95;35.33;;;;;;;0.52;68.74;99215.91;10463690;28;20072;-69
2020/12/10 21:27:54;;;;;;;75.70;32.13;;;;;;;0.69;68.55;99215.81;10464627;28;20398;-70
2020/12/10 21:32:55;;;;;;;86.18;35.30;;;;;;;0.67;68.67;99215.84;10462343;28;20064;-70
2020/12/10 21:37:57;;;;;;;81.82;35.03;;;;;;;0.61;68.91;99200.34;10462771;28;20462;-70
2020/12/10 21:42:59;;;;;;;86.05;34.00;;;;;;;0.71;68.88;99198.59;10462906;28;20076;-69
2020/12/10 21:48:00;;;;;;;92.50;35.50;;;;;;;0.76;68.56;99186.47;10444530;28;20045;-69
2020/12/10 21:53:01;;;;;;;92.82;33.72;;;;;;;0.70;68.49;99191.66;10461448;28;20048;-71
2020/12/10 21:58:02;;;;;;;84.60;34.13;;;;;;;0.64;68.88;99197.75;10460547;28;20045;-69
2020/12/10 22:03:03;;;;;;;91.35;36.95;;;;;;;0.85;68.26;99190.75;10460517;28;20040;-70
2020/12/10 22:08:06;;;;;;;97.60;35.88;;;;;;;0.90;68.50;99191.56;10461032;28;20080;-69
2020/12/10 22:13:09;;;;;;;96.95;35.97;;;;;;;0.83;68.30;99195.91;10459938;28;20044;-69
2020/12/10 22:18:12;;;;;;;86.28;34.88;;;;;;;0.98;68.06;99185.47;10461201;28;20052;-70
2020/12/10 22:23:13;;;;;;;87.53;35.53;;;;;;;0.93;68.30;99189.81;10461150;28;20045;-69
2020/12/10 22:28:14;;;;;;;97.30;39.30;;;;;;;0.92;68.49;99189.81;10461551;28;20041;-69
2020/12/10 22:33:16;;;;;;;91.20;35.50;;;;;;;0.80;68.81;99197.63;10461117;28;20048;-69
2020/12/10 22:38:17;;;;;;;94.78;35.50;;;;;;;0.83;68.92;99195.91;10460482;28;20044;-69
2020/12/10 22:43:18;;;;;;;102.75;38.25;;;;;;;0.77;68.88;99203.72;10441718;28;20135;-69
2020/12/10 22:48:19;;;;;;;109.30;39.38;;;;;;;0.66;69.32;99197.72;10459401;28;20053;-69
2020/12/10 22:53:20;;;;;;;92.10;35.72;;;;;;;1.04;68.69;99188.88;10460369;28;20124;-69
2020/12/10 22:58:23;;;;;;;99.93;36.00;;;;;;;0.88;68.61;99194.13;10460172;28;20116;-69
2020/12/10 23:03:24;;;;;;;98.30;37.53;;;;;;;0.95;68.61;99189.81;10459298;28;20045;-70
2020/12/10 23:08:25;;;;;;;114.90;41.58;;;;;;;1.18;68.99;99192.22;10458772;28;20084;-69
2020/12/10 23:13:27;;;;;;;126.70;42.42;;;;;;;1.07;69.52;99202.66;10460342;28;20509;-70
2020/12/10 23:18:28;;;;;;;119.25;43.65;;;;;;;1.06;69.22;99192.31;10441491;28;20048;-70